sensor_id;sensor_type;location;lat;lon;timestamp;P1;durP1;ratioP1;P2;durP2;ratioP2
15474;SDS011;7839;50.462;9.678;2023-06-01T00:02:07;2.40;;;1.33;;
15474;SDS011;7839;50.462;9.678;2023-06-01T00:08:48;1.50;;;1.20;;
15474;SDS011;7839;50.462;9.678;2023-06-01T00:15:29;2.03;;;1.35;;
15474;SDS011;7839;50.462;9.678;2023-06-01T00:22:09;2.50;;;1.50;;
15474;SDS011;7839;50.462;9.678;2023-06-01T00:28:49;2.58;;;1.55;;
15474;SDS011;7839;50.462;9.678;2023-06-01T00:35:30;1.35;;;1.13;;
15474;SDS011;7839;50.462;9.678;2023-06-01T00:42:10;1.67;;;1.27;;
15474;SDS011;7839;50.462;9.678;2023-06-01T00:48:50;1.98;;;1.50;;
15474;SDS011;7839;50.462;9.678;2023-06-01T00:55:31;1.73;;;1.35;;
15474;SDS011;7839;50.462;9.678;2023-06-01T01:02:11;1.48;;;1.27;;
15474;SDS011;7839;50.462;9.678;2023-06-01T01:22:25;1.58;;;1.30;;
15474;SDS011;7839;50.462;9.678;2023-06-01T01:29:11;1.33;;;1.23;;
15474;SDS011;7839;50.462;9.678;2023-06-01T01:35:52;1.08;;;0.90;;
15474;SDS011;7839;50.462;9.678;2023-06-01T01:42:33;1.13;;;1.08;;
15474;SDS011;7839;50.462;9.678;2023-06-01T01:55:57;1.55;;;1.30;;
15474;SDS011;7839;50.462;9.678;2023-06-01T02:02:38;1.02;;;0.93;;
15474;SDS011;7839;50.462;9.678;2023-06-01T02:09:19;1.10;;;0.90;;
15474;SDS011;7839;50.462;9.678;2023-06-01T02:15:59;1.17;;;1.17;;
15474;SDS011;7839;50.462;9.678;2023-06-01T02:22:40;1.00;;;1.00;;
15474;SDS011;7839;50.462;9.678;2023-06-01T02:29:21;1.27;;;1.17;;
15474;SDS011;7839;50.462;9.678;2023-06-01T02:36:04;0.73;;;0.70;;
15474;SDS011;7839;50.462;9.678;2023-06-01T02:42:45;0.77;;;0.77;;
15474;SDS011;7839;50.462;9.678;2023-06-01T02:49:25;0.80;;;0.80;;
15474;SDS011;7839;50.462;9.678;2023-06-01T02:56:05;0.70;;;0.68;;
15474;SDS011;7839;50.462;9.678;2023-06-01T03:02:46;0.80;;;0.80;;
15474;SDS011;7839;50.462;9.678;2023-06-01T03:09:26;1.17;;;1.07;;
15474;SDS011;7839;50.462;9.678;2023-06-01T03:16:06;1.13;;;0.90;;
15474;SDS011;7839;50.462;9.678;2023-06-01T03:22:46;0.80;;;0.75;;
15474;SDS011;7839;50.462;9.678;2023-06-01T03:29:27;0.60;;;0.60;;
15474;SDS011;7839;50.462;9.678;2023-06-01T03:36:07;0.70;;;0.70;;
15474;SDS011;7839;50.462;9.678;2023-06-01T03:42:48;0.75;;;0.75;;
15474;SDS011;7839;50.462;9.678;2023-06-01T03:49:28;0.90;;;0.90;;
15474;SDS011;7839;50.462;9.678;2023-06-01T03:56:08;0.63;;;0.63;;
15474;SDS011;7839;50.462;9.678;2023-06-01T04:02:53;1.05;;;0.80;;
15474;SDS011;7839;50.462;9.678;2023-06-01T04:09:34;0.80;;;0.80;;
15474;SDS011;7839;50.462;9.678;2023-06-01T04:16:14;0.95;;;0.82;;
15474;SDS011;7839;50.462;9.678;2023-06-01T04:22:55;0.53;;;0.50;;
15474;SDS011;7839;50.462;9.678;2023-06-01T04:29:35;0.70;;;0.70;;
15474;SDS011;7839;50.462;9.678;2023-06-01T04:36:19;0.73;;;0.73;;
15474;SDS011;7839;50.462;9.678;2023-06-01T04:43:01;1.20;;;0.98;;
15474;SDS011;7839;50.462;9.678;2023-06-01T04:49:43;1.02;;;0.70;;
15474;SDS011;7839;50.462;9.678;2023-06-01T04:56:24;0.80;;;0.70;;
15474;SDS011;7839;50.462;9.678;2023-06-01T05:03:04;0.75;;;0.75;;
15474;SDS011;7839;50.462;9.678;2023-06-01T05:09:44;0.60;;;0.60;;
15474;SDS011;7839;50.462;9.678;2023-06-01T05:16:25;0.85;;;0.85;;
15474;SDS011;7839;50.462;9.678;2023-06-01T05:23:05;0.60;;;0.60;;
15474;SDS011;7839;50.462;9.678;2023-06-01T05:29:45;0.50;;;0.50;;
15474;SDS011;7839;50.462;9.678;2023-06-01T05:36:26;0.60;;;0.60;;
15474;SDS011;7839;50.462;9.678;2023-06-01T05:43:07;0.68;;;0.68;;
15474;SDS011;7839;50.462;9.678;2023-06-01T05:49:47;0.75;;;0.75;;
15474;SDS011;7839;50.462;9.678;2023-06-01T05:56:27;1.20;;;1.10;;
15474;SDS011;7839;50.462;9.678;2023-06-01T06:03:08;7.40;;;3.27;;
15474;SDS011;7839;50.462;9.678;2023-06-01T06:09:48;4.23;;;2.93;;
15474;SDS011;7839;50.462;9.678;2023-06-01T06:16:28;4.40;;;3.00;;
15474;SDS011;7839;50.462;9.678;2023-06-01T06:23:08;3.97;;;2.87;;
15474;SDS011;7839;50.462;9.678;2023-06-01T06:29:48;5.43;;;2.73;;
15474;SDS011;7839;50.462;9.678;2023-06-01T06:36:29;3.57;;;2.57;;
15474;SDS011;7839;50.462;9.678;2023-06-01T06:43:09;2.40;;;1.73;;
15474;SDS011;7839;50.462;9.678;2023-06-01T06:49:49;3.10;;;2.43;;
15474;SDS011;7839;50.462;9.678;2023-06-01T06:56:30;1.13;;;1.10;;
15474;SDS011;7839;50.462;9.678;2023-06-01T07:03:10;5.60;;;2.73;;
15474;SDS011;7839;50.462;9.678;2023-06-01T07:09:51;4.77;;;2.60;;
15474;SDS011;7839;50.462;9.678;2023-06-01T07:16:33;4.00;;;2.67;;
15474;SDS011;7839;50.462;9.678;2023-06-01T07:23:13;8.17;;;3.10;;
15474;SDS011;7839;50.462;9.678;2023-06-01T07:29:55;5.80;;;3.00;;
15474;SDS011;7839;50.462;9.678;2023-06-01T07:36:36;6.33;;;2.73;;
15474;SDS011;7839;50.462;9.678;2023-06-01T07:43:17;5.07;;;2.57;;
15474;SDS011;7839;50.462;9.678;2023-06-01T07:49:57;3.47;;;1.93;;
15474;SDS011;7839;50.462;9.678;2023-06-01T07:56:37;7.53;;;3.00;;
15474;SDS011;7839;50.462;9.678;2023-06-01T08:03:18;5.57;;;2.73;;
15474;SDS011;7839;50.462;9.678;2023-06-01T08:10:01;6.83;;;3.10;;
15474;SDS011;7839;50.462;9.678;2023-06-01T08:16:42;4.67;;;2.70;;
15474;SDS011;7839;50.462;9.678;2023-06-01T08:23:23;5.23;;;2.93;;
15474;SDS011;7839;50.462;9.678;2023-06-01T08:30:03;4.77;;;2.20;;
15474;SDS011;7839;50.462;9.678;2023-06-01T08:36:44;4.43;;;2.57;;
15474;SDS011;7839;50.462;9.678;2023-06-01T08:43:24;3.27;;;2.03;;
15474;SDS011;7839;50.462;9.678;2023-06-01T08:50:11;3.47;;;2.43;;
15474;SDS011;7839;50.462;9.678;2023-06-01T08:56:51;3.40;;;2.17;;
15474;SDS011;7839;50.462;9.678;2023-06-01T09:03:32;4.10;;;2.17;;
15474;SDS011;7839;50.462;9.678;2023-06-01T09:10:12;7.13;;;2.40;;
15474;SDS011;7839;50.462;9.678;2023-06-01T09:16:52;7.07;;;2.20;;
15474;SDS011;7839;50.462;9.678;2023-06-01T09:23:32;4.33;;;2.40;;
15474;SDS011;7839;50.462;9.678;2023-06-01T09:30:13;3.63;;;2.17;;
15474;SDS011;7839;50.462;9.678;2023-06-01T09:36:54;4.93;;;2.20;;
15474;SDS011;7839;50.462;9.678;2023-06-01T09:43:34;4.37;;;2.03;;
15474;SDS011;7839;50.462;9.678;2023-06-01T09:50:38;4.47;;;1.80;;
15474;SDS011;7839;50.462;9.678;2023-06-01T09:57:22;2.60;;;1.83;;
15474;SDS011;7839;50.462;9.678;2023-06-01T10:04:03;2.03;;;1.80;;
15474;SDS011;7839;50.462;9.678;2023-06-01T10:10:46;2.60;;;1.60;;
15474;SDS011;7839;50.462;9.678;2023-06-01T10:17:26;3.63;;;2.13;;
15474;SDS011;7839;50.462;9.678;2023-06-01T10:24:06;2.80;;;1.73;;
15474;SDS011;7839;50.462;9.678;2023-06-01T10:30:48;3.47;;;1.70;;
15474;SDS011;7839;50.462;9.678;2023-06-01T10:38:20;2.95;;;1.67;;
15474;SDS011;7839;50.462;9.678;2023-06-01T10:44:47;2.83;;;1.70;;
15474;SDS011;7839;50.462;9.678;2023-06-01T10:51:28;6.10;;;1.97;;
15474;SDS011;7839;50.462;9.678;2023-06-01T10:58:42;3.10;;;1.80;;
15474;SDS011;7839;50.462;9.678;2023-06-01T11:19:35;3.40;;;2.00;;
15474;SDS011;7839;50.462;9.678;2023-06-01T11:26:21;4.40;;;1.90;;
15474;SDS011;7839;50.462;9.678;2023-06-01T11:33:04;2.27;;;1.60;;
15474;SDS011;7839;50.462;9.678;2023-06-01T11:39:45;3.17;;;1.55;;
15474;SDS011;7839;50.462;9.678;2023-06-01T11:46:26;1.73;;;1.63;;
15474;SDS011;7839;50.462;9.678;2023-06-01T11:53:08;2.70;;;1.67;;
15474;SDS011;7839;50.462;9.678;2023-06-01T11:59:49;1.65;;;1.50;;
15474;SDS011;7839;50.462;9.678;2023-06-01T12:06:29;1.80;;;1.70;;
15474;SDS011;7839;50.462;9.678;2023-06-01T12:13:10;2.70;;;1.90;;
15474;SDS011;7839;50.462;9.678;2023-06-01T12:19:51;2.83;;;1.95;;
15474;SDS011;7839;50.462;9.678;2023-06-01T12:26:34;3.55;;;1.95;;
15474;SDS011;7839;50.462;9.678;2023-06-01T12:33:31;2.15;;;1.70;;
15474;SDS011;7839;50.462;9.678;2023-06-01T12:40:21;3.58;;;2.22;;
15474;SDS011;7839;50.462;9.678;2023-06-01T12:47:01;2.85;;;1.63;;
15474;SDS011;7839;50.462;9.678;2023-06-01T12:53:42;4.32;;;1.70;;
15474;SDS011;7839;50.462;9.678;2023-06-01T13:00:23;1.63;;;1.50;;
15474;SDS011;7839;50.462;9.678;2023-06-01T13:07:03;1.60;;;1.50;;
15474;SDS011;7839;50.462;9.678;2023-06-01T13:13:43;2.65;;;1.60;;
15474;SDS011;7839;50.462;9.678;2023-06-01T13:20:23;2.00;;;1.30;;
15474;SDS011;7839;50.462;9.678;2023-06-01T13:27:03;1.90;;;1.55;;
15474;SDS011;7839;50.462;9.678;2023-06-01T13:33:44;2.10;;;1.65;;
15474;SDS011;7839;50.462;9.678;2023-06-01T13:40:25;2.03;;;1.40;;
15474;SDS011;7839;50.462;9.678;2023-06-01T13:47:05;2.97;;;2.42;;
15474;SDS011;7839;50.462;9.678;2023-06-01T13:53:45;7.00;;;3.88;;
15474;SDS011;7839;50.462;9.678;2023-06-01T14:00:25;4.85;;;4.05;;
15474;SDS011;7839;50.462;9.678;2023-06-01T14:07:08;5.10;;;4.60;;
15474;SDS011;7839;50.462;9.678;2023-06-01T14:13:48;5.00;;;4.55;;
15474;SDS011;7839;50.462;9.678;2023-06-01T14:20:28;6.05;;;4.78;;
15474;SDS011;7839;50.462;9.678;2023-06-01T14:27:09;5.15;;;4.65;;
15474;SDS011;7839;50.462;9.678;2023-06-01T14:33:49;4.78;;;4.30;;
15474;SDS011;7839;50.462;9.678;2023-06-01T14:40:29;5.80;;;4.80;;
15474;SDS011;7839;50.462;9.678;2023-06-01T14:47:09;6.22;;;4.40;;
15474;SDS011;7839;50.462;9.678;2023-06-01T14:53:51;4.13;;;3.73;;
15474;SDS011;7839;50.462;9.678;2023-06-01T15:00:31;8.20;;;4.00;;
15474;SDS011;7839;50.462;9.678;2023-06-01T15:07:11;3.95;;;3.60;;
15474;SDS011;7839;50.462;9.678;2023-06-01T15:13:52;4.23;;;3.87;;
15474;SDS011;7839;50.462;9.678;2023-06-01T15:20:32;4.32;;;3.92;;
15474;SDS011;7839;50.462;9.678;2023-06-01T15:27:12;5.93;;;3.47;;
15474;SDS011;7839;50.462;9.678;2023-06-01T15:33:52;4.13;;;3.65;;
15474;SDS011;7839;50.462;9.678;2023-06-01T15:40:32;4.13;;;3.72;;
15474;SDS011;7839;50.462;9.678;2023-06-01T15:47:12;5.78;;;3.25;;
15474;SDS011;7839;50.462;9.678;2023-06-01T15:53:53;4.00;;;3.60;;
15474;SDS011;7839;50.462;9.678;2023-06-01T16:00:33;4.10;;;3.75;;
15474;SDS011;7839;50.462;9.678;2023-06-01T16:07:13;4.33;;;3.57;;
15474;SDS011;7839;50.462;9.678;2023-06-01T16:13:53;3.17;;;2.87;;
15474;SDS011;7839;50.462;9.678;2023-06-01T16:20:33;3.55;;;2.72;;
15474;SDS011;7839;50.462;9.678;2023-06-01T16:27:13;2.90;;;2.60;;
15474;SDS011;7839;50.462;9.678;2023-06-01T16:33:54;2.83;;;2.47;;
15474;SDS011;7839;50.462;9.678;2023-06-01T16:40:34;3.25;;;2.53;;
15474;SDS011;7839;50.462;9.678;2023-06-01T16:47:14;3.23;;;2.20;;
15474;SDS011;7839;50.462;9.678;2023-06-01T16:53:54;2.50;;;2.30;;
15474;SDS011;7839;50.462;9.678;2023-06-01T17:00:34;3.35;;;2.47;;
15474;SDS011;7839;50.462;9.678;2023-06-01T17:07:16;9.87;;;3.73;;
15474;SDS011;7839;50.462;9.678;2023-06-01T17:13:56;3.50;;;2.70;;
15474;SDS011;7839;50.462;9.678;2023-06-01T17:20:36;5.37;;;3.10;;
15474;SDS011;7839;50.462;9.678;2023-06-01T17:27:17;4.00;;;3.17;;
15474;SDS011;7839;50.462;9.678;2023-06-01T17:33:57;3.50;;;3.10;;
15474;SDS011;7839;50.462;9.678;2023-06-01T17:40:37;5.40;;;3.30;;
15474;SDS011;7839;50.462;9.678;2023-06-01T17:47:17;8.40;;;3.50;;
15474;SDS011;7839;50.462;9.678;2023-06-01T17:53:59;3.30;;;3.03;;
15474;SDS011;7839;50.462;9.678;2023-06-01T18:00:39;5.90;;;3.53;;
15474;SDS011;7839;50.462;9.678;2023-06-01T18:07:20;6.47;;;3.10;;
15474;SDS011;7839;50.462;9.678;2023-06-01T18:14:00;3.60;;;3.30;;
15474;SDS011;7839;50.462;9.678;2023-06-01T18:20:40;4.57;;;4.00;;
15474;SDS011;7839;50.462;9.678;2023-06-01T18:27:20;7.03;;;3.93;;
15474;SDS011;7839;50.462;9.678;2023-06-01T18:34:00;4.83;;;4.10;;
15474;SDS011;7839;50.462;9.678;2023-06-01T18:40:41;5.47;;;4.13;;
15474;SDS011;7839;50.462;9.678;2023-06-01T18:47:21;10.10;;;4.63;;
15474;SDS011;7839;50.462;9.678;2023-06-01T18:54:02;5.57;;;4.80;;
15474;SDS011;7839;50.462;9.678;2023-06-01T19:00:43;6.23;;;4.93;;
15474;SDS011;7839;50.462;9.678;2023-06-01T19:21:21;5.27;;;4.70;;
15474;SDS011;7839;50.462;9.678;2023-06-01T19:28:20;6.70;;;4.60;;
15474;SDS011;7839;50.462;9.678;2023-06-01T19:35:22;7.37;;;4.70;;
15474;SDS011;7839;50.462;9.678;2023-06-01T20:03:57;7.87;;;5.47;;
15474;SDS011;7839;50.462;9.678;2023-06-01T20:10:37;5.13;;;4.63;;
15474;SDS011;7839;50.462;9.678;2023-06-01T20:17:17;8.30;;;5.17;;
15474;SDS011;7839;50.462;9.678;2023-06-01T20:23:57;8.70;;;4.63;;
15474;SDS011;7839;50.462;9.678;2023-06-01T20:37:21;6.13;;;3.77;;
15474;SDS011;7839;50.462;9.678;2023-06-01T20:44:01;4.80;;;3.70;;
15474;SDS011;7839;50.462;9.678;2023-06-01T20:50:41;5.93;;;4.00;;
15474;SDS011;7839;50.462;9.678;2023-06-01T20:57:21;4.03;;;3.63;;
15474;SDS011;7839;50.462;9.678;2023-06-01T21:04:02;4.47;;;4.03;;
15474;SDS011;7839;50.462;9.678;2023-06-01T21:10:42;4.03;;;3.63;;
15474;SDS011;7839;50.462;9.678;2023-06-01T21:17:24;4.20;;;3.73;;
15474;SDS011;7839;50.462;9.678;2023-06-01T21:24:04;4.93;;;3.93;;
15474;SDS011;7839;50.462;9.678;2023-06-01T21:30:44;4.20;;;3.57;;
15474;SDS011;7839;50.462;9.678;2023-06-01T21:37:25;3.70;;;3.40;;
15474;SDS011;7839;50.462;9.678;2023-06-01T21:44:06;4.20;;;3.40;;
15474;SDS011;7839;50.462;9.678;2023-06-01T21:50:46;5.37;;;4.17;;
15474;SDS011;7839;50.462;9.678;2023-06-01T21:57:26;3.67;;;3.37;;
15474;SDS011;7839;50.462;9.678;2023-06-01T22:04:07;4.07;;;3.67;;
15474;SDS011;7839;50.462;9.678;2023-06-01T22:10:47;3.40;;;3.20;;
15474;SDS011;7839;50.462;9.678;2023-06-01T22:17:27;4.03;;;3.63;;
15474;SDS011;7839;50.462;9.678;2023-06-01T22:24:08;4.47;;;4.00;;
15474;SDS011;7839;50.462;9.678;2023-06-01T22:30:48;4.10;;;3.40;;
15474;SDS011;7839;50.462;9.678;2023-06-01T22:37:28;3.87;;;3.47;;
15474;SDS011;7839;50.462;9.678;2023-06-01T22:44:08;3.70;;;3.40;;
15474;SDS011;7839;50.462;9.678;2023-06-01T22:50:49;6.73;;;3.70;;
15474;SDS011;7839;50.462;9.678;2023-06-01T22:57:29;5.40;;;3.47;;
15474;SDS011;7839;50.462;9.678;2023-06-01T23:04:09;4.00;;;3.50;;
15474;SDS011;7839;50.462;9.678;2023-06-01T23:10:50;4.90;;;3.33;;
15474;SDS011;7839;50.462;9.678;2023-06-01T23:17:31;4.87;;;3.60;;
15474;SDS011;7839;50.462;9.678;2023-06-01T23:24:12;3.80;;;3.50;;
15474;SDS011;7839;50.462;9.678;2023-06-01T23:30:52;3.90;;;3.47;;
15474;SDS011;7839;50.462;9.678;2023-06-01T23:37:33;3.67;;;3.30;;
15474;SDS011;7839;50.462;9.678;2023-06-01T23:44:13;3.97;;;3.65;;
15474;SDS011;7839;50.462;9.678;2023-06-01T23:50:53;3.83;;;3.40;;
15474;SDS011;7839;50.462;9.678;2023-06-01T23:57:34;3.53;;;3.23;;
